Time;durP1;ratioP1;P1;durP2;ratioP2;P2;SDS_P1;SDS_P2;PMS_P1;PMS_P2;Temp;Humidity;BMP_temperature;BMP_pressure;BME280_temperature;BME280_humidity;BME280_pressure;Samples;Min_cycle;Max_cycle;Signal;HPM_P1;HPM_P2
2022/12/25 00:00:11;;;;;;;31.60;19.60;;;;;;;;;;765330;182;918066;-64
2022/12/25 00:02:37;;;;;;;27.10;15.63;;;;;;;;;;762175;181;918716;-63
2022/12/25 00:05:03;;;;;;;28.53;16.07;;;;;;;;;;769411;181;919269;-63
2022/12/25 00:07:29;;;;;;;37.47;20.20;;;;;;;;;;771150;181;861961;-64
2022/12/25 00:09:55;;;;;;;30.60;16.50;;;;;;;;;;774412;180;814696;-63
2022/12/25 00:12:21;;;;;;;27.17;14.32;;;;;;;;;;771294;180;919290;-63
2022/12/25 00:14:47;;;;;;;29.13;16.47;;;;;;;;;;771403;180;626524;-62
2022/12/25 00:17:13;;;;;;;27.00;13.70;;;;;;;;;;764011;180;715223;-62
2022/12/25 00:19:39;;;;;;;28.38;13.15;;;;;;;;;;768775;180;919853;-62
2022/12/25 00:22:04;;;;;;;23.70;12.83;;;;;;;;;;764977;184;920500;-62
2022/12/25 00:24:30;;;;;;;18.87;12.63;;;;;;;;;;765061;180;839876;-62
2022/12/25 00:26:56;;;;;;;25.83;15.37;;;;;;;;;;772672;180;919196;-62
2022/12/25 00:29:22;;;;;;;25.07;13.97;;;;;;;;;;776491;180;920246;-62
2022/12/25 00:31:48;;;;;;;26.67;14.73;;;;;;;;;;771931;181;918835;-62
2022/12/25 00:34:14;;;;;;;26.83;15.20;;;;;;;;;;771966;181;817544;-62
2022/12/25 00:36:40;;;;;;;23.80;14.10;;;;;;;;;;762756;181;915370;-62
2022/12/25 00:39:06;;;;;;;18.80;14.03;;;;;;;;;;773558;180;867313;-62
2022/12/25 00:44:03;;;;;;;25.50;14.73;;;;;;;;;;760008;182;919798;-63
2022/12/25 00:46:29;;;;;;;31.93;13.03;;;;;;;;;;765989;183;919397;-62
2022/12/25 00:48:55;;;;;;;29.17;14.30;;;;;;;;;;761590;183;919120;-63
2022/12/25 00:51:20;;;;;;;24.17;15.00;;;;;;;;;;760160;183;919699;-63
2022/12/25 00:53:46;;;;;;;28.90;13.77;;;;;;;;;;760961;183;919310;-63
2022/12/25 00:56:12;;;;;;;27.80;15.00;;;;;;;;;;755250;181;959459;-63
2022/12/25 00:58:38;;;;;;;24.10;14.10;;;;;;;;;;762193;182;919129;-63
2022/12/25 01:01:04;;;;;;;24.97;12.47;;;;;;;;;;764525;180;918394;-63
2022/12/25 01:03:30;;;;;;;29.50;14.33;;;;;;;;;;767356;183;818682;-62
2022/12/25 01:05:56;;;;;;;27.50;15.27;;;;;;;;;;768087;180;914270;-63
2022/12/25 01:08:21;;;;;;;24.80;13.70;;;;;;;;;;771991;180;916838;-63
2022/12/25 01:10:52;;;;;;;24.23;14.53;;;;;;;;;;775282;180;916663;-64
2022/12/25 01:13:18;;;;;;;29.50;13.00;;;;;;;;;;769629;180;915381;-63
2022/12/25 01:15:44;;;;;;;28.20;16.20;;;;;;;;;;768477;180;919127;-62
2022/12/25 01:18:10;;;;;;;26.40;14.20;;;;;;;;;;763296;181;918909;-63
2022/12/25 01:20:36;;;;;;;29.87;13.23;;;;;;;;;;768368;181;919491;-62
2022/12/25 01:23:01;;;;;;;34.23;14.77;;;;;;;;;;769274;180;918334;-63
2022/12/25 01:25:27;;;;;;;27.98;13.15;;;;;;;;;;773211;180;918741;-63
2022/12/25 01:27:53;;;;;;;29.07;15.93;;;;;;;;;;767319;183;918665;-63
2022/12/25 01:30:19;;;;;;;24.17;13.43;;;;;;;;;;759962;183;918271;-63
2022/12/25 01:32:45;;;;;;;25.77;12.60;;;;;;;;;;761261;183;920420;-63
2022/12/25 01:35:11;;;;;;;23.23;12.50;;;;;;;;;;767784;183;808065;-64
2022/12/25 01:37:37;;;;;;;28.43;13.37;;;;;;;;;;769418;180;919612;-63
2022/12/25 01:40:03;;;;;;;24.00;14.10;;;;;;;;;;771542;180;919424;-63
2022/12/25 01:42:29;;;;;;;23.03;10.80;;;;;;;;;;769391;181;919129;-63
2022/12/25 01:44:59;;;;;;;22.23;12.77;;;;;;;;;;778682;180;917347;-63
2022/12/25 01:47:25;;;;;;;26.23;13.15;;;;;;;;;;763218;180;927276;-62
2022/12/25 01:49:51;;;;;;;22.30;11.57;;;;;;;;;;772788;181;918269;-63
2022/12/25 01:52:17;;;;;;;26.57;12.57;;;;;;;;;;766602;181;914054;-63
2022/12/25 01:54:44;;;;;;;24.43;12.07;;;;;;;;;;762105;182;919818;-63
2022/12/25 01:57:10;;;;;;;20.93;12.07;;;;;;;;;;769281;181;917529;-63
2022/12/25 01:59:35;;;;;;;23.53;13.03;;;;;;;;;;767793;181;919177;-63
2022/12/25 02:02:01;;;;;;;23.17;12.10;;;;;;;;;;768872;182;817239;-63
2022/12/25 02:04:37;;;;;;;18.83;11.90;;;;;;;;;;765913;181;918845;-63
2022/12/25 02:06:53;;;;;;;24.10;13.13;;;;;;;;;;759454;181;915746;-63
2022/12/25 02:09:19;;;;;;;19.60;11.73;;;;;;;;;;775076;180;919494;-63
2022/12/25 02:14:16;;;;;;;21.33;10.83;;;;;;;;;;761706;181;910334;-64
2022/12/25 02:16:42;;;;;;;20.40;11.40;;;;;;;;;;765594;181;919237;-64
2022/12/25 02:19:10;;;;;;;16.20;10.47;;;;;;;;;;763939;181;918411;-63
2022/12/25 02:21:47;;;;;;;22.80;10.97;;;;;;;;;;758590;182;920676;-63
2022/12/25 02:24:27;;;;;;;25.53;11.90;;;;;;;;;;761767;183;920877;-63
2022/12/25 02:26:53;;;;;;;17.60;10.50;;;;;;;;;;759393;183;819943;-63
2022/12/25 02:29:20;;;;;;;26.00;12.67;;;;;;;;;;764011;183;919763;-63
2022/12/25 02:31:47;;;;;;;25.73;11.63;;;;;;;;;;773307;179;816012;-63
2022/12/25 02:34:13;;;;;;;22.80;10.67;;;;;;;;;;768026;180;919304;-63
2022/12/25 02:36:45;;;;;;;23.63;12.80;;;;;;;;;;772633;180;919238;-63
2022/12/25 02:41:43;;;;;;;20.27;12.57;;;;;;;;;;773535;180;926300;-63
2022/12/25 03:06:55;;;;;;;15.57;10.30;;;;;;;;;;773884;181;822001;-63
2022/12/25 03:11:54;;;;;;;18.40;11.02;;;;;;;;;;767323;180;921871;-63
2022/12/25 03:16:52;;;;;;;17.53;9.73;;;;;;;;;;766748;183;920992;-63
2022/12/25 03:26:54;;;;;;;16.00;9.80;;;;;;;;;;768331;181;918883;-63
2022/12/25 03:31:51;;;;;;;19.27;11.53;;;;;;;;;;767389;181;940868;-63
2022/12/25 04:36:14;;;;;;;21.90;10.13;;;;;;;;;;766817;183;912772;-63
2022/12/25 04:38:40;;;;;;;16.17;9.37;;;;;;;;;;765027;180;923576;-63
2022/12/25 04:41:06;;;;;;;24.20;12.20;;;;;;;;;;762333;183;915964;-63
2022/12/25 04:43:32;;;;;;;24.43;13.37;;;;;;;;;;757125;184;919345;-63
2022/12/25 04:45:58;;;;;;;24.27;12.10;;;;;;;;;;762699;183;918726;-63
2022/12/25 04:48:24;;;;;;;25.23;11.40;;;;;;;;;;763173;181;919287;-63
2022/12/25 04:50:50;;;;;;;20.23;12.25;;;;;;;;;;762137;183;928382;-63
2022/12/25 04:53:16;;;;;;;20.00;11.03;;;;;;;;;;766476;183;920585;-63
2022/12/25 04:55:42;;;;;;;23.60;12.90;;;;;;;;;;766063;182;922084;-62
2022/12/25 04:58:08;;;;;;;22.10;14.00;;;;;;;;;;768193;180;919595;-63
2022/12/25 05:00:34;;;;;;;22.63;12.03;;;;;;;;;;768737;181;817243;-63
2022/12/25 05:02:59;;;;;;;22.80;11.87;;;;;;;;;;770619;180;918673;-63
2022/12/25 05:05:25;;;;;;;21.53;12.77;;;;;;;;;;770450;181;814750;-63
2022/12/25 05:07:51;;;;;;;20.90;11.63;;;;;;;;;;774572;181;894882;-63
2022/12/25 05:10:17;;;;;;;22.27;11.03;;;;;;;;;;769020;179;925259;-63
2022/12/25 05:12:43;;;;;;;22.50;11.90;;;;;;;;;;764421;181;919892;-63
2022/12/25 05:15:09;;;;;;;25.17;10.70;;;;;;;;;;768148;180;920246;-62
2022/12/25 05:17:36;;;;;;;17.77;11.17;;;;;;;;;;766070;180;920502;-63
2022/12/25 05:20:01;;;;;;;15.70;9.90;;;;;;;;;;765285;181;918206;-63
2022/12/25 05:22:27;;;;;;;22.87;12.83;;;;;;;;;;768309;180;918993;-63
2022/12/25 05:24:53;;;;;;;19.70;12.17;;;;;;;;;;776013;181;920247;-62
2022/12/25 05:27:18;;;;;;;19.23;11.13;;;;;;;;;;769175;181;920336;-62
2022/12/25 05:29:44;;;;;;;25.60;10.07;;;;;;;;;;764571;181;919113;-63
2022/12/25 05:32:10;;;;;;;30.60;11.83;;;;;;;;;;770333;181;919278;-63
2022/12/25 05:34:36;;;;;;;65.47;30.40;;;;;;;;;;769191;181;918959;-62
2022/12/25 05:37:02;;;;;;;33.47;16.40;;;;;;;;;;767356;180;918198;-66
2022/12/25 05:39:28;;;;;;;68.83;17.23;;;;;;;;;;774439;181;918878;-63
2022/12/25 05:41:53;;;;;;;81.10;22.30;;;;;;;;;;767540;181;920108;-62
2022/12/25 05:44:19;;;;;;;119.50;20.60;;;;;;;;;;770029;181;918740;-62
2022/12/25 05:46:45;;;;;;;51.45;14.45;;;;;;;;;;767793;181;919354;-63
2022/12/25 05:49:11;;;;;;;293.10;29.30;;;;;;;;;;753567;185;919039;-62
2022/12/25 05:51:37;;;;;;;176.17;21.50;;;;;;;;;;765810;181;918745;-62
2022/12/25 05:54:03;;;;;;;169.63;23.07;;;;;;;;;;764331;180;919418;-63
2022/12/25 05:56:29;;;;;;;369.63;34.17;;;;;;;;;;774226;181;918785;-62
2022/12/25 05:58:54;;;;;;;276.63;30.70;;;;;;;;;;769708;181;919532;-63
2022/12/25 06:01:20;;;;;;;180.03;29.63;;;;;;;;;;764710;181;919624;-63
2022/12/25 06:03:46;;;;;;;323.63;53.23;;;;;;;;;;776293;181;841441;-63
2022/12/25 06:06:12;;;;;;;188.47;32.33;;;;;;;;;;773098;180;909682;-63
2022/12/25 06:08:38;;;;;;;120.55;25.12;;;;;;;;;;766916;180;921064;-63
2022/12/25 06:11:04;;;;;;;292.25;43.85;;;;;;;;;;775498;179;920010;-63
2022/12/25 06:13:30;;;;;;;148.23;31.67;;;;;;;;;;771534;180;913762;-63
2022/12/25 06:15:56;;;;;;;205.43;34.23;;;;;;;;;;773204;180;904893;-63
2022/12/25 06:18:22;;;;;;;133.87;25.23;;;;;;;;;;762325;181;919322;-62
2022/12/25 06:20:48;;;;;;;152.97;26.30;;;;;;;;;;773561;180;915646;-63
2022/12/25 06:23:14;;;;;;;196.37;23.70;;;;;;;;;;765831;180;918314;-63
2022/12/25 06:25:39;;;;;;;236.47;26.03;;;;;;;;;;761180;180;918609;-62
2022/12/25 06:28:05;;;;;;;30.07;14.53;;;;;;;;;;771792;180;906709;-63
2022/12/25 06:30:31;;;;;;;172.50;18.98;;;;;;;;;;767711;180;902755;-63
2022/12/25 06:32:58;;;;;;;183.23;22.93;;;;;;;;;;770336;180;918953;-63
2022/12/25 06:35:23;;;;;;;146.27;22.00;;;;;;;;;;773920;181;925472;-63
2022/12/25 06:37:49;;;;;;;189.40;23.13;;;;;;;;;;770562;180;919743;-62
2022/12/25 06:40:15;;;;;;;206.70;21.10;;;;;;;;;;768396;180;919586;-63
2022/12/25 06:42:41;;;;;;;130.93;21.50;;;;;;;;;;770255;180;919181;-62
2022/12/25 06:45:07;;;;;;;217.97;19.70;;;;;;;;;;768568;180;919360;-63
2022/12/25 06:47:33;;;;;;;85.70;15.45;;;;;;;;;;769322;180;919076;-62
2022/12/25 06:49:59;;;;;;;94.77;16.73;;;;;;;;;;767565;180;917126;-63
2022/12/25 06:52:24;;;;;;;103.30;14.10;;;;;;;;;;772391;181;919675;-62
2022/12/25 06:54:50;;;;;;;88.15;16.05;;;;;;;;;;765255;181;1022085;-62
2022/12/25 06:57:16;;;;;;;58.07;14.50;;;;;;;;;;766647;180;917701;-63
2022/12/25 06:59:42;;;;;;;51.83;15.53;;;;;;;;;;775246;181;866494;-62
2022/12/25 07:02:08;;;;;;;28.23;15.47;;;;;;;;;;772004;180;915041;-64
2022/12/25 07:04:36;;;;;;;73.63;34.13;;;;;;;;;;766965;181;924404;-63
2022/12/25 07:07:00;;;;;;;58.97;32.80;;;;;;;;;;763392;180;1068905;-65
2022/12/25 07:09:26;;;;;;;63.57;32.73;;;;;;;;;;768428;180;918869;-63
2022/12/25 07:11:52;;;;;;;109.07;42.05;;;;;;;;;;767548;180;919093;-63
2022/12/25 07:14:18;;;;;;;122.17;45.60;;;;;;;;;;765972;180;920376;-63
2022/12/25 07:16:44;;;;;;;106.67;37.87;;;;;;;;;;778466;180;628188;-63
2022/12/25 07:19:10;;;;;;;64.57;20.52;;;;;;;;;;770748;178;835293;-63
2022/12/25 07:21:35;;;;;;;136.80;31.93;;;;;;;;;;765766;180;918463;-63
2022/12/25 07:24:01;;;;;;;261.00;66.80;;;;;;;;;;777457;180;710637;-62
2022/12/25 07:26:27;;;;;;;281.37;39.37;;;;;;;;;;774160;180;919154;-62
2022/12/25 07:28:53;;;;;;;346.03;38.70;;;;;;;;;;765427;181;916863;-62
2022/12/25 07:31:19;;;;;;;169.47;33.10;;;;;;;;;;767524;180;916889;-63
2022/12/25 07:33:45;;;;;;;295.73;60.67;;;;;;;;;;770523;180;915603;-63
2022/12/25 07:36:11;;;;;;;214.93;73.33;;;;;;;;;;771013;179;916912;-63
2022/12/25 07:38:37;;;;;;;133.00;37.43;;;;;;;;;;766430;181;918463;-63
2022/12/25 07:41:02;;;;;;;104.07;35.37;;;;;;;;;;774425;181;631489;-63
2022/12/25 07:43:28;;;;;;;140.90;53.03;;;;;;;;;;771262;180;627298;-63
2022/12/25 07:45:54;;;;;;;101.03;25.67;;;;;;;;;;769387;181;873874;-63
2022/12/25 07:48:20;;;;;;;81.75;33.75;;;;;;;;;;774973;180;817479;-63
2022/12/25 07:50:46;;;;;;;89.23;38.23;;;;;;;;;;759588;183;919447;-63
2022/12/25 07:53:12;;;;;;;121.75;34.10;;;;;;;;;;764365;181;919956;-62
2022/12/25 07:55:38;;;;;;;125.60;34.90;;;;;;;;;;769330;181;918641;-63
2022/12/25 07:58:04;;;;;;;65.47;35.90;;;;;;;;;;751587;185;919024;-62
2022/12/25 08:00:31;;;;;;;35.87;22.40;;;;;;;;;;735875;190;920411;-64
2022/12/25 08:02:55;;;;;;;37.72;23.98;;;;;;;;;;756795;183;818210;-64
2022/12/25 08:05:21;;;;;;;87.10;28.00;;;;;;;;;;765476;183;919813;-63
2022/12/25 08:07:47;;;;;;;79.30;25.70;;;;;;;;;;769363;180;918355;-64
2022/12/25 08:10:13;;;;;;;122.10;36.40;;;;;;;;;;765775;181;918333;-64
2022/12/25 08:12:39;;;;;;;39.50;18.27;;;;;;;;;;772310;181;919407;-64
2022/12/25 08:15:05;;;;;;;54.30;20.53;;;;;;;;;;767373;180;809717;-64
2022/12/25 08:17:31;;;;;;;22.10;13.30;;;;;;;;;;766620;181;774413;-63
2022/12/25 08:19:57;;;;;;;18.50;12.80;;;;;;;;;;768500;180;816413;-64
2022/12/25 08:22:23;;;;;;;25.90;15.77;;;;;;;;;;765627;181;920198;-64
2022/12/25 08:24:48;;;;;;;37.37;14.77;;;;;;;;;;765784;181;942108;-63
2022/12/25 08:27:14;;;;;;;31.60;19.30;;;;;;;;;;765240;180;929556;-65
2022/12/25 08:29:40;;;;;;;22.80;13.20;;;;;;;;;;773826;179;908001;-62
2022/12/25 08:32:06;;;;;;;28.33;16.90;;;;;;;;;;768659;180;921729;-62
2022/12/25 08:34:32;;;;;;;48.43;21.00;;;;;;;;;;768477;180;919403;-63
2022/12/25 08:36:58;;;;;;;30.33;16.43;;;;;;;;;;775744;180;930445;-63
2022/12/25 08:39:23;;;;;;;32.73;16.37;;;;;;;;;;767606;180;919492;-62
2022/12/25 08:41:49;;;;;;;60.30;42.60;;;;;;;;;;770062;181;918057;-61
2022/12/25 08:44:15;;;;;;;43.60;29.17;;;;;;;;;;774581;181;919398;-61
2022/12/25 08:46:41;;;;;;;73.63;36.97;;;;;;;;;;770090;181;920688;-61
2022/12/25 08:49:07;;;;;;;72.43;36.07;;;;;;;;;;770640;179;920410;-61
2022/12/25 08:51:33;;;;;;;54.63;31.53;;;;;;;;;;771723;181;919222;-62
2022/12/25 08:53:59;;;;;;;37.65;15.05;;;;;;;;;;765783;182;915073;-62
2022/12/25 08:56:24;;;;;;;46.43;17.20;;;;;;;;;;770015;180;816596;-61
2022/12/25 08:58:50;;;;;;;43.27;10.93;;;;;;;;;;765588;181;920728;-63
2022/12/25 09:01:16;;;;;;;18.50;10.03;;;;;;;;;;765986;181;818178;-63
2022/12/25 09:03:42;;;;;;;84.47;46.30;;;;;;;;;;759464;183;919326;-62
2022/12/25 09:06:08;;;;;;;31.02;21.52;;;;;;;;;;748221;186;920156;-61
2022/12/25 09:08:34;;;;;;;82.10;52.43;;;;;;;;;;755866;181;918418;-63
2022/12/25 09:11:01;;;;;;;28.77;20.17;;;;;;;;;;767561;181;918985;-62
2022/12/25 09:13:27;;;;;;;47.73;32.93;;;;;;;;;;765708;180;916005;-61
2022/12/25 09:15:53;;;;;;;19.37;15.00;;;;;;;;;;766702;180;918953;-62
2022/12/25 09:18:19;;;;;;;22.67;18.30;;;;;;;;;;771525;180;815124;-61
2022/12/25 09:20:45;;;;;;;18.17;14.50;;;;;;;;;;772658;180;914040;-61
2022/12/25 09:23:11;;;;;;;19.33;13.75;;;;;;;;;;769506;180;1010829;-61
2022/12/25 09:25:37;;;;;;;14.60;10.53;;;;;;;;;;767970;180;914647;-61
2022/12/25 09:28:02;;;;;;;16.67;11.77;;;;;;;;;;765169;180;919154;-61
2022/12/25 09:30:28;;;;;;;21.00;15.03;;;;;;;;;;765279;180;817062;-62
2022/12/25 09:32:54;;;;;;;19.87;13.30;;;;;;;;;;773187;180;807255;-62
2022/12/25 09:35:20;;;;;;;24.60;15.70;;;;;;;;;;764447;180;880636;-61
2022/12/25 09:37:46;;;;;;;19.33;13.33;;;;;;;;;;768759;180;918227;-61
2022/12/25 09:40:16;;;;;;;15.88;11.52;;;;;;;;;;771004;180;819512;-61
2022/12/25 09:42:42;;;;;;;23.77;12.30;;;;;;;;;;771037;182;829517;-61
2022/12/25 09:45:10;;;;;;;18.50;11.70;;;;;;;;;;772253;180;829906;-61
2022/12/25 09:47:37;;;;;;;13.37;9.63;;;;;;;;;;768124;180;807325;-63
2022/12/25 09:50:02;;;;;;;16.20;10.10;;;;;;;;;;776562;180;846738;-60
2022/12/25 09:52:29;;;;;;;23.05;15.93;;;;;;;;;;765788;180;918808;-60
2022/12/25 09:54:58;;;;;;;45.03;27.50;;;;;;;;;;768611;180;905870;-61
2022/12/25 09:57:24;;;;;;;56.23;41.10;;;;;;;;;;769615;180;813348;-61
2022/12/25 09:59:50;;;;;;;28.17;24.10;;;;;;;;;;765636;183;916983;-61
2022/12/25 10:02:20;;;;;;;18.90;14.37;;;;;;;;;;759768;182;916092;-61
2022/12/25 10:04:49;;;;;;;28.47;16.87;;;;;;;;;;756748;182;915761;-60
2022/12/25 10:07:31;;;;;;;20.70;16.10;;;;;;;;;;755560;183;818857;-62
2022/12/25 10:10:01;;;;;;;18.50;12.45;;;;;;;;;;753351;184;920914;-62
2022/12/25 10:12:29;;;;;;;20.33;13.83;;;;;;;;;;752909;184;919202;-61
2022/12/25 10:14:59;;;;;;;23.90;14.03;;;;;;;;;;736058;190;919443;-61
2022/12/25 10:17:25;;;;;;;26.40;14.87;;;;;;;;;;745401;186;817087;-61
2022/12/25 10:20:02;;;;;;;30.10;20.70;;;;;;;;;;741538;190;920513;-61
2022/12/25 10:22:29;;;;;;;30.03;19.07;;;;;;;;;;765180;182;919673;-61
2022/12/25 10:24:55;;;;;;;18.53;14.60;;;;;;;;;;764233;183;873509;-60
2022/12/25 10:27:29;;;;;;;20.90;10.90;;;;;;;;;;768969;180;915503;-60
2022/12/25 10:29:55;;;;;;;16.53;10.00;;;;;;;;;;767025;180;827613;-61
2022/12/25 10:32:21;;;;;;;24.47;17.30;;;;;;;;;;774918;180;715260;-61
2022/12/25 10:34:47;;;;;;;28.00;20.83;;;;;;;;;;760653;183;919707;-61
2022/12/25 10:37:12;;;;;;;40.70;27.27;;;;;;;;;;758075;182;915215;-61
2022/12/25 10:39:38;;;;;;;11.17;7.13;;;;;;;;;;771500;181;886760;-62
2022/12/25 10:42:20;;;;;;;34.73;21.77;;;;;;;;;;765544;180;893816;-60
2022/12/25 10:44:52;;;;;;;25.37;20.67;;;;;;;;;;770967;180;785482;-60
2022/12/25 10:47:18;;;;;;;21.90;14.00;;;;;;;;;;765618;176;922335;-62
2022/12/25 10:49:44;;;;;;;24.00;19.40;;;;;;;;;;765943;181;919629;-61
2022/12/25 10:52:16;;;;;;;19.90;12.23;;;;;;;;;;774090;181;923669;-61
2022/12/25 10:54:42;;;;;;;21.03;13.90;;;;;;;;;;768792;180;918249;-60
2022/12/25 10:57:13;;;;;;;18.97;14.00;;;;;;;;;;770659;180;730271;-61
2022/12/25 10:59:41;;;;;;;20.93;14.00;;;;;;;;;;771116;180;918980;-61
2022/12/25 11:02:23;;;;;;;17.70;12.23;;;;;;;;;;768907;180;919105;-62
2022/12/25 11:04:49;;;;;;;15.13;10.40;;;;;;;;;;769396;180;919315;-60
2022/12/25 11:07:20;;;;;;;17.40;10.97;;;;;;;;;;767329;181;913163;-61
2022/12/25 11:09:48;;;;;;;15.03;10.57;;;;;;;;;;766958;180;914378;-61
2022/12/25 11:12:14;;;;;;;16.93;10.67;;;;;;;;;;767328;180;920724;-61
2022/12/25 11:14:40;;;;;;;21.13;11.03;;;;;;;;;;770243;180;924817;-60
2022/12/25 11:17:06;;;;;;;20.13;14.07;;;;;;;;;;763114;183;922594;-61
2022/12/25 11:19:32;;;;;;;20.40;13.80;;;;;;;;;;766275;180;919373;-61
2022/12/25 11:21:58;;;;;;;16.90;12.63;;;;;;;;;;771301;181;919409;-61
2022/12/25 11:24:24;;;;;;;16.23;11.90;;;;;;;;;;757382;183;928413;-62
2022/12/25 11:26:50;;;;;;;15.43;11.87;;;;;;;;;;744567;186;921453;-61
2022/12/25 11:29:20;;;;;;;14.17;8.90;;;;;;;;;;766050;180;818762;-62
2022/12/25 11:31:46;;;;;;;9.90;7.20;;;;;;;;;;769011;181;917527;-60
2022/12/25 11:34:14;;;;;;;13.40;8.47;;;;;;;;;;767605;180;819543;-60
2022/12/25 11:36:44;;;;;;;12.67;6.90;;;;;;;;;;767581;180;918625;-61
2022/12/25 11:39:16;;;;;;;12.93;6.47;;;;;;;;;;772571;181;715373;-61
2022/12/25 11:41:42;;;;;;;10.80;5.67;;;;;;;;;;766295;183;918506;-60
2022/12/25 11:44:08;;;;;;;11.77;6.90;;;;;;;;;;767753;180;919655;-60
2022/12/25 11:46:38;;;;;;;18.37;7.20;;;;;;;;;;766643;181;921657;-60
2022/12/25 11:49:04;;;;;;;14.30;6.53;;;;;;;;;;772719;180;921562;-61
2022/12/25 11:51:31;;;;;;;11.90;6.83;;;;;;;;;;767368;180;919584;-61
2022/12/25 11:53:59;;;;;;;12.17;7.67;;;;;;;;;;768340;180;918071;-61
2022/12/25 11:56:24;;;;;;;11.77;7.00;;;;;;;;;;765815;181;841339;-61
2022/12/25 11:58:51;;;;;;;14.60;7.30;;;;;;;;;;774175;180;919802;-61
2022/12/25 12:01:33;;;;;;;10.33;7.60;;;;;;;;;;759784;182;915814;-60
2022/12/25 12:03:59;;;;;;;10.93;7.40;;;;;;;;;;760202;181;918906;-61
2022/12/25 12:06:25;;;;;;;12.00;7.90;;;;;;;;;;760162;181;905818;-61
2022/12/25 12:08:51;;;;;;;11.20;6.90;;;;;;;;;;762619;183;919429;-62
2022/12/25 12:11:19;;;;;;;14.07;7.90;;;;;;;;;;770006;180;933238;-61
2022/12/25 12:13:45;;;;;;;13.80;6.30;;;;;;;;;;770111;180;918331;-62
2022/12/25 12:16:11;;;;;;;12.33;7.47;;;;;;;;;;766540;181;915608;-62
2022/12/25 12:18:37;;;;;;;17.12;8.07;;;;;;;;;;766826;181;815722;-61
2022/12/25 12:21:05;;;;;;;12.30;8.07;;;;;;;;;;768586;180;919556;-61
2022/12/25 12:23:31;;;;;;;12.70;7.57;;;;;;;;;;766700;180;919339;-62
2022/12/25 12:25:57;;;;;;;12.03;7.23;;;;;;;;;;771154;178;918739;-61
2022/12/25 12:28:22;;;;;;;9.50;6.43;;;;;;;;;;759070;183;816837;-63
2022/12/25 12:30:54;;;;;;;10.77;6.80;;;;;;;;;;769373;180;888110;-62
2022/12/25 12:33:20;;;;;;;11.23;7.00;;;;;;;;;;769150;181;920628;-60
2022/12/25 12:35:46;;;;;;;11.50;6.30;;;;;;;;;;769665;179;916316;-61
2022/12/25 12:38:14;;;;;;;11.40;7.97;;;;;;;;;;768200;180;916552;-61
2022/12/25 12:40:41;;;;;;;11.13;6.00;;;;;;;;;;770444;180;909175;-62
2022/12/25 12:43:07;;;;;;;14.80;7.37;;;;;;;;;;772656;181;812010;-61
2022/12/25 12:45:34;;;;;;;10.77;6.27;;;;;;;;;;768762;181;919767;-61
2022/12/25 12:47:59;;;;;;;10.87;6.43;;;;;;;;;;768676;180;918464;-62
2022/12/25 12:50:26;;;;;;;11.07;6.27;;;;;;;;;;771400;181;927392;-61
2022/12/25 12:52:52;;;;;;;8.83;5.67;;;;;;;;;;769628;183;818963;-62
2022/12/25 12:55:18;;;;;;;7.87;5.50;;;;;;;;;;768959;181;816222;-62
2022/12/25 12:57:44;;;;;;;10.83;6.10;;;;;;;;;;771265;181;615876;-62
2022/12/25 13:00:11;;;;;;;12.53;6.43;;;;;;;;;;775001;181;624751;-62
2022/12/25 13:02:57;;;;;;;17.17;6.10;;;;;;;;;;770697;180;817749;-62
2022/12/25 13:05:29;;;;;;;9.87;6.40;;;;;;;;;;772748;180;919200;-61
2022/12/25 13:08:10;;;;;;;9.20;4.07;;;;;;;;;;767888;180;919735;-62
2022/12/25 13:10:35;;;;;;;7.37;5.20;;;;;;;;;;765379;181;818551;-62
2022/12/25 13:13:02;;;;;;;13.00;6.07;;;;;;;;;;766185;180;815570;-62
2022/12/25 13:15:28;;;;;;;14.17;6.10;;;;;;;;;;774347;181;919506;-61
2022/12/25 13:17:54;;;;;;;10.07;6.93;;;;;;;;;;770259;180;918957;-61
2022/12/25 13:20:24;;;;;;;11.97;7.37;;;;;;;;;;772991;180;915202;-62
2022/12/25 13:22:50;;;;;;;19.27;10.93;;;;;;;;;;758652;183;921209;-62
2022/12/25 13:25:16;;;;;;;18.73;10.80;;;;;;;;;;761297;182;914950;-62
2022/12/25 13:27:42;;;;;;;12.37;7.73;;;;;;;;;;759183;181;920044;-62
2022/12/25 13:30:11;;;;;;;19.00;10.37;;;;;;;;;;762009;180;918750;-63
2022/12/25 13:32:37;;;;;;;21.07;12.10;;;;;;;;;;773503;181;723537;-63
2022/12/25 13:35:03;;;;;;;21.07;11.20;;;;;;;;;;768756;181;875297;-62
2022/12/25 13:37:29;;;;;;;18.95;10.00;;;;;;;;;;769842;180;914619;-63
2022/12/25 13:39:55;;;;;;;15.73;8.57;;;;;;;;;;773475;181;919036;-62
2022/12/25 13:42:20;;;;;;;13.87;9.00;;;;;;;;;;770302;180;922116;-62
2022/12/25 13:44:47;;;;;;;20.00;10.23;;;;;;;;;;758724;182;922665;-61
2022/12/25 13:47:15;;;;;;;19.10;9.90;;;;;;;;;;768384;181;920556;-62
2022/12/25 13:49:41;;;;;;;21.83;11.70;;;;;;;;;;760648;183;918938;-62
2022/12/25 13:52:09;;;;;;;18.67;11.17;;;;;;;;;;771089;180;922783;-61
2022/12/25 13:54:35;;;;;;;23.43;12.27;;;;;;;;;;765635;180;919350;-62
2022/12/25 13:57:01;;;;;;;23.15;9.70;;;;;;;;;;770037;180;915623;-61
2022/12/25 13:59:26;;;;;;;18.53;9.90;;;;;;;;;;769616;181;817422;-61
2022/12/25 14:01:52;;;;;;;15.93;10.10;;;;;;;;;;769384;180;886311;-62
2022/12/25 14:04:18;;;;;;;24.60;13.30;;;;;;;;;;773850;180;919773;-62
2022/12/25 14:06:44;;;;;;;21.80;13.13;;;;;;;;;;767972;180;916136;-62
2022/12/25 14:09:10;;;;;;;26.50;15.20;;;;;;;;;;767127;180;911984;-62
2022/12/25 14:11:37;;;;;;;33.93;19.40;;;;;;;;;;756793;183;918917;-62
2022/12/25 14:14:03;;;;;;;48.60;24.07;;;;;;;;;;760394;184;867976;-62
2022/12/25 14:16:29;;;;;;;40.07;21.77;;;;;;;;;;755675;183;915118;-62
2022/12/25 14:18:55;;;;;;;33.53;18.83;;;;;;;;;;731243;189;933110;-62
2022/12/25 14:21:22;;;;;;;35.47;18.83;;;;;;;;;;755508;184;917681;-62
2022/12/25 14:23:48;;;;;;;37.33;24.30;;;;;;;;;;767905;180;919055;-62
2022/12/25 14:26:19;;;;;;;41.83;22.97;;;;;;;;;;768964;183;918125;-62
2022/12/25 14:28:46;;;;;;;29.20;16.83;;;;;;;;;;771058;179;633878;-61
2022/12/25 14:31:12;;;;;;;24.00;14.40;;;;;;;;;;771671;180;918715;-62
2022/12/25 14:33:38;;;;;;;19.42;11.38;;;;;;;;;;772747;180;865506;-62
2022/12/25 14:36:04;;;;;;;23.07;11.90;;;;;;;;;;766940;180;912289;-62
2022/12/25 14:38:33;;;;;;;19.40;10.77;;;;;;;;;;767840;180;919965;-62
2022/12/25 14:40:58;;;;;;;19.00;8.50;;;;;;;;;;774839;179;915181;-62
2022/12/25 14:43:24;;;;;;;24.00;14.03;;;;;;;;;;768074;179;1021795;-61
2022/12/25 14:46:05;;;;;;;22.00;14.73;;;;;;;;;;766595;181;921192;-63
2022/12/25 14:48:30;;;;;;;21.93;14.40;;;;;;;;;;766743;181;819363;-62
2022/12/25 14:50:56;;;;;;;20.57;13.77;;;;;;;;;;768105;180;919143;-62
2022/12/25 14:53:22;;;;;;;24.03;13.17;;;;;;;;;;768017;183;917795;-62
2022/12/25 14:55:48;;;;;;;23.57;11.80;;;;;;;;;;766296;181;917914;-62
2022/12/25 14:58:16;;;;;;;19.98;11.48;;;;;;;;;;767683;179;922146;-62
2022/12/25 15:00:42;;;;;;;19.40;12.40;;;;;;;;;;774561;180;917775;-61
2022/12/25 15:03:07;;;;;;;25.63;14.13;;;;;;;;;;767643;181;919551;-62
2022/12/25 15:05:35;;;;;;;19.80;12.60;;;;;;;;;;768692;180;918356;-62
2022/12/25 15:08:02;;;;;;;15.95;9.23;;;;;;;;;;772655;181;922412;-62
2022/12/25 15:10:28;;;;;;;13.63;10.10;;;;;;;;;;764688;181;817072;-63
2022/12/25 15:12:53;;;;;;;13.33;8.57;;;;;;;;;;767752;181;816701;-62
2022/12/25 15:15:19;;;;;;;14.77;8.80;;;;;;;;;;762556;181;925093;-62
2022/12/25 15:17:45;;;;;;;12.33;8.53;;;;;;;;;;771742;181;899465;-62
2022/12/25 15:20:11;;;;;;;15.53;8.63;;;;;;;;;;765510;181;918030;-62
2022/12/25 15:22:37;;;;;;;16.48;11.25;;;;;;;;;;771441;180;916692;-62
2022/12/25 15:25:03;;;;;;;12.30;8.17;;;;;;;;;;769173;180;915680;-61
2022/12/25 15:27:29;;;;;;;23.17;13.73;;;;;;;;;;766011;181;864844;-62
2022/12/25 15:29:55;;;;;;;30.90;16.47;;;;;;;;;;766090;181;918399;-62
2022/12/25 15:32:21;;;;;;;17.33;11.57;;;;;;;;;;771906;181;893254;-62
2022/12/25 15:34:48;;;;;;;26.53;16.17;;;;;;;;;;762240;180;918559;-62
2022/12/25 15:37:12;;;;;;;20.50;13.13;;;;;;;;;;767386;181;919577;-62
2022/12/25 15:39:38;;;;;;;16.03;10.63;;;;;;;;;;763574;180;817684;-62
2022/12/25 15:42:10;;;;;;;13.57;9.50;;;;;;;;;;772917;181;716062;-62
2022/12/25 15:44:36;;;;;;;16.67;10.53;;;;;;;;;;772805;180;912175;-62
2022/12/25 15:47:02;;;;;;;14.48;10.43;;;;;;;;;;766003;180;922028;-61
2022/12/25 15:49:28;;;;;;;11.27;7.80;;;;;;;;;;775711;180;914130;-62